ΕΜΥ, Εθνική Μετεωρολογική Υπηρεσία - Δελτία Καιρού, Προγνώσεις

ΑΕΡΟΝΑΥΤΙΛΙΑ

GREEK AIRPORTS CODES

LGMT 261020Z 31008KT 9999 -RA FEW020TCU SCT030 28/21 Q1014=

EUROPEAN AIRPORTS CODES

EKCH 261020Z AUTO 18006KT 150V210 9999 FEW073/// 25/19Q1017 NOSIG=